Terminal Aerodrome Forecast
Issued by NWS Bismarck, ND

Home | Current Version | Previous Version | Text Only | Print | Product List | Glossary Off
Versions: 1 2 3 4 5 6 7 8 9 10 11 12 13 14 15 16 17 18 19 20

000
FTUS43 KBIS 232300
TAFISN
TAF
KISN 232338Z 2400/2424 09010KT P6SM BKN100
     FM240800 VRB05KT P6SM SCT008 BKN030
     FM241100 32011KT 2SM -RASN BR BKN008 OVC012
     FM242200 32017G25KT 4SM -RA BKN012 OVC020=

USA.gov is the U.S. government's official web portal to all federal, state and local government web resources and services.